Latest Coastal Weather Observations for Croker Island Airport

IDD60701

Issued at 5:11 pm CST Tuesday 31 May 2016 (issued every 10 minutes, with the page automatically refreshed every 10 minutes)

About coastal observations | Map of coastal stations | Coastal observations for NT | Marine services | Other Formats
Station Details ID: 014308 Name: CROKER ISLAND AIRPORT Lat: -11.16 Lon: 132.48 Height: 9.2 m
Data from the previous 72 hours. | See also: Recent months at Croker Island Airport
Date/Time
CST
Temp

°C
Wind Pressure Rain
since 9am
mm
Weather Cloud Vis
km
Sea
Height
m
Swell
Dir
 
Speed
knots
Gust
knots
hPa Trend Height
m
Period
s
Dir
31/05:00pm 28.7 ESE 9 15 1011.4 - 0.0 - - - - - - -
31/04:30pm 30.0 E 9 14 1011.1 - 0.0 - - - - - - -
31/04:00pm 30.1 E 10 16 1010.9 - 0.0 - - - - - - -
31/03:30pm 30.6 E 10 16 1010.9 - 0.0 - - - - - - -
31/03:00pm 30.9 ENE 11 18 1010.9 - 0.0 - - - - - - -
31/02:30pm 30.2 E 11 17 1011.3 - 0.0 - - - - - - -
31/02:00pm 30.8 ENE 12 19 1011.6 - 0.0 - - - - - - -
31/01:30pm 31.1 E 12 20 1011.9 - 0.0 - - - - - - -
31/01:00pm 30.8 E 12 17 1012.3 - 0.0 - - - - - - -
31/12:30pm 30.8 E 11 17 1012.8 - 0.0 - - - - - - -
31/12:00pm 30.5 E 13 19 1013.2 - 0.0 - - - - - - -
31/11:30am 30.7 ESE 11 18 1013.4 - 0.0 - - - - - - -
31/11:00am 30.2 E 12 20 1013.7 - 0.0 - - - - - - -
31/10:30am 29.8 ESE 12 19 1014.0 - 0.0 - - - - - - -
31/10:00am 29.5 ESE 11 17 1014.1 - 0.0 - - - - - - -
31/09:30am 28.6 ESE 10 15 1014.3 - 0.0 - - - - - - -
31/09:00am 28.3 ESE 9 14 1014.1 - 0.0 - - - - - - -
31/08:30am 27.4 ESE 8 13 1013.9 - 0.0 - - - - - - -
31/08:00am 26.5 SE 7 10 1013.7 - 0.0 - - - - - - -
31/07:30am 25.4 SE 5 8 1013.4 - 0.0 - - - - - - -
31/07:00am 25.1 SE 5 7 1013.2 - 0.0 - - - - - - -
31/06:30am 25.3 SE 4 7 1012.7 - 0.0 - - - - - - -
31/06:00am 25.8 SE 5 7 1012.7 - 0.0 - - - - - - -
31/05:30am 26.4 SE 7 11 1012.4 - 0.0 - - - - - - -
31/05:00am 26.4 E 5 8 1012.2 - 0.0 - - - - - - -
31/04:30am 26.6 E 5 7 1012.2 - 0.0 - - - - - - -
31/04:00am 26.6 E 5 7 1012.1 - 0.0 - - - - - - -
31/03:30am 26.9 E 7 11 1012.1 - 0.0 - - - - - - -
31/03:00am 27.0 E 7 10 1012.3 - 0.0 - - - - - - -
31/02:30am 26.8 E 6 8 1012.4 - 0.0 - - - - - - -
31/02:00am 26.5 E 4 6 1012.5 - 0.0 - - - - - - -
31/01:30am 26.8 E 6 10 1012.7 - 0.0 - - - - - - -
31/01:00am 26.5 E 4 6 1012.6 - 0.0 - - - - - - -
31/12:30am 26.0 E 3 5 1012.7 - 0.0 - - - - - - -
31/12:00am 26.1 ENE 3 5 1012.8 - 0.0 - - - - - - -
 
Date/Time
CST
Temp

°C
Wind Pressure Rain
since 9am
mm
Weather Cloud Vis
km
Sea
Height
m
Swell
Dir
 
Speed
knots
Gust
knots
hPa Trend Height
m
Period
s
Dir
30/11:30pm 26.2 ENE 4 6 1012.9 - 0.0 - - - - - - -
30/11:00pm 26.1 ENE 3 5 1013.2 - 0.0 - - - - - - -
30/10:30pm 26.1 ENE 4 5 1013.3 - 0.0 - - - - - - -
30/10:00pm 25.9 ENE 3 5 1013.3 - 0.0 - - - - - - -
30/09:30pm 25.8 ENE 3 4 1013.1 - 0.0 - - - - - - -
30/09:00pm 26.0 ENE 4 5 1012.8 - 0.0 - - - - - - -
30/08:30pm 26.4 E 4 5 1012.8 - 0.0 - - - - - - -
30/08:00pm 26.6 ENE 5 7 1012.5 - 0.0 - - - - - - -
30/07:30pm 26.5 E 4 5 1012.3 - 0.0 - - - - - - -
30/07:00pm 27.0 ENE 4 8 1012.1 - 0.0 - - - - - - -
30/06:30pm 27.5 ENE 6 9 1011.6 - 0.0 - - - - - - -
30/06:00pm 28.1 ENE 7 13 1011.3 - 0.0 - - - - - - -
30/05:30pm 29.0 E 10 14 1010.9 - 0.0 - - - - - - -
30/05:00pm 27.9 E 7 11 1010.7 - 0.0 - - - - - - -
30/04:30pm 28.1 E 13 23 1010.6 - 0.0 - - - - - - -
30/04:00pm 30.7 ENE 12 18 1010.1 - 0.0 - - - - - - -
30/03:30pm 30.8 ENE 12 18 1010.2 - 0.0 - - - - - - -
30/03:00pm 31.0 E 11 16 1010.2 - 0.0 - - - - - - -
30/02:30pm 28.6 E 9 12 1010.7 - 0.0 - - - - - - -
30/02:00pm 28.2 E 12 19 1011.1 - 0.0 - - - - - - -
30/01:30pm 26.7 E 12 19 1011.6 - 0.0 - - - - - - -
30/01:00pm 30.9 ESE 10 15 1011.7 - 0.0 - - - - - - -
30/12:30pm 30.9 E 11 15 1012.2 - 0.0 - - - - - - -
30/12:00pm 30.5 ESE 10 19 1012.5 - 0.0 - - - - - - -
30/11:30am 30.6 E 11 16 1012.8 - 0.0 - - - - - - -
30/11:00am 30.3 E 11 15 1013.1 - 0.0 - - - - - - -
30/10:30am 30.1 ESE 10 15 1013.4 - 0.0 - - - - - - -
30/10:00am 29.9 ESE 8 13 1013.5 - 0.0 - - - - - - -
30/09:30am 29.3 ESE 6 11 1013.5 - 0.0 - - - - - - -
30/09:00am 29.3 ESE 7 11 1013.3 - 0.0 - - - - - - -
30/08:30am 28.2 ESE 6 11 1013.2 - 0.0 - - - - - - -
30/08:00am 27.0 E 2 3 1013.3 - 0.0 - - - - - - -
30/07:30am 25.7 ENE 5 7 1013.0 - 0.0 - - - - - - -
30/07:00am 25.7 E 4 6 1012.5 - 0.0 - - - - - - -
30/06:30am 26.1 E 3 7 1012.0 - 0.0 - - - - - - -
30/06:00am 25.8 E 4 5 1011.6 - 0.0 - - - - - - -
30/05:30am 25.7 ENE 4 6 1011.4 - 0.0 - - - - - - -
30/05:00am 25.3 ENE 3 4 1011.3 - 0.0 - - - - - - -
30/04:30am 25.1 ENE 3 4 1011.2 - 0.0 - - - - - - -
30/04:00am 25.5 ENE 4 6 1011.3 - 0.0 - - - - - - -
30/03:30am 25.2 E 4 4 1011.5 - 0.0 - - - - - - -
30/03:00am 25.3 E 3 4 1011.8 - 0.0 - - - - - - -
30/02:30am 25.4 E 3 4 1011.9 - 0.0 - - - - - - -
30/02:00am 25.1 ESE 3 4 1012.2 - 0.0 - - - - - - -
30/01:30am 24.9 E 3 4 1012.3 - 0.0 - - - - - - -
30/01:00am 24.9 E 2 3 1012.6 - 0.0 - - - - - - -
30/12:30am 25.3 ENE 3 4 1012.8 - 0.0 - - - - - - -
30/12:00am 25.1 ENE 3 4 1012.9 - 0.0 - - - - - - -
 
Date/Time
CST
Temp

°C
Wind Pressure Rain
since 9am
mm
Weather Cloud Vis
km
Sea
Height
m
Swell
Dir
 
Speed
knots
Gust
knots
hPa Trend Height
m
Period
s
Dir
29/11:30pm 25.2 ENE 4 4 1013.0 - 0.0 - - - - - - -
29/11:00pm 24.5 E 2 3 1013.0 - 0.0 - - - - - - -
29/10:30pm 25.0 E 3 4 1013.1 - 0.0 - - - - - - -
29/10:00pm 25.1 ENE 3 4 1013.0 - 0.0 - - - - - - -
29/09:30pm 25.4 ENE 2 2 1012.9 - 0.0 - - - - - - -
29/09:00pm 25.8 ESE 3 6 1012.9 - 0.0 - - - - - - -
29/08:30pm 26.7 ESE 4 8 1013.0 - 0.0 - - - - - - -
29/08:00pm 26.6 E 3 3 1012.9 - 0.0 - - - - - - -
29/07:30pm 27.0 SE 4 5 1012.4 - 0.0 - - - - - - -
29/07:00pm 27.3 E 2 3 1012.2 - 0.0 - - - - - - -
29/06:30pm 28.0 ENE 3 4 1011.9 - 0.0 - - - - - - -
29/06:00pm 29.0 E 5 7 1011.6 - 0.0 - - - - - - -
29/05:30pm 29.9 ENE 6 9 1011.3 - 0.0 - - - - - - -
29/05:00pm 30.5 ENE 5 8 1011.0 - 0.0 - - - - - - -
29/04:30pm 30.5 NE 7 11 1010.7 - 0.0 - - - - - - -
29/04:00pm 31.2 ENE 8 12 1010.4 - 0.0 - - - - - - -
29/03:30pm 31.2 NE 8 13 1010.3 - 0.0 - - - - - - -
29/03:00pm 30.5 ENE 8 11 1010.6 - 0.0 - - - - - - -
29/02:30pm 30.8 ENE 9 14 1011.1 - 0.0 - - - - - - -
29/02:00pm 31.2 ENE 7 10 1011.5 - 0.0 - - - - - - -
29/01:30pm 31.0 ENE 8 12 1011.8 - 0.0 - - - - - - -
29/01:00pm 30.7 E 7 11 1012.4 - 0.0 - - - - - - -
29/12:30pm 29.6 ENE 6 9 1012.9 - 0.0 - - - - - - -
29/12:00pm 27.2 E 8 14 1013.2 - 0.0 - - - - - - -
29/11:30am 28.2 ENE 4 9 1013.5 - 0.0 - - - - - - -
29/11:00am 32.4 E 6 9 1013.9 - 0.0 - - - - - - -
29/10:30am 31.5 ENE 5 9 1014.0 - 0.0 - - - - - - -
29/10:00am 30.4 ENE 5 8 1014.0 - 0.0 - - - - - - -
29/09:30am 29.8 ENE 5 9 1014.1 - 0.0 - - - - - - -
29/09:00am 30.1 NNE 4 5 1013.8 - 0.0 - - - - - - -
29/08:30am 28.9 NE 3 4 1013.3 - 0.0 - - - - - - -
29/08:00am 27.2 NE 2 3 1012.9 - 0.0 - - - - - - -
29/07:30am 25.1 ENE 3 4 1012.5 - 0.0 - - - - - - -
29/07:00am 24.2 ENE 4 4 1012.2 - 0.0 - - - - - - -
29/06:30am 24.3 NE 3 4 1012.1 - 0.0 - - - - - - -
29/06:00am 24.0 ENE 3 4 1011.7 - 0.0 - - - - - - -
29/05:30am 24.0 E 3 3 1011.7 - 0.0 - - - - - - -
29/05:00am 24.1 E 3 3 1011.7 - 0.0 - - - - - - -
29/04:30am 24.3 ENE 3 3 1011.3 - 0.0 - - - - - - -
29/04:00am 24.3 ENE 3 3 1011.1 - 0.0 - - - - - - -
29/03:30am 24.3 ENE 3 3 1011.3 - 0.0 - - - - - - -
29/03:00am 24.4 E 3 3 1011.3 - 0.0 - - - - - - -
29/02:30am 24.6 ENE 2 2 1011.4 - 0.0 - - - - - - -
29/02:00am 24.2 NE 2 2 1011.6 - 0.0 - - - - - - -
29/01:30am 24.3 NE 1 2 1011.8 - 0.0 - - - - - - -
29/01:00am 24.8 ENE 3 3 1012.1 - 0.0 - - - - - - -
29/12:30am 24.9 ENE 3 3 1012.1 - 0.0 - - - - - - -
29/12:00am 24.9 NE 2 2 1012.2 - 0.0 - - - - - - -
 
Date/Time
CST
Temp

°C
Wind Pressure Rain
since 9am
mm
Weather Cloud Vis
km
Sea
Height
m
Swell
Dir
 
Speed
knots
Gust
knots
hPa Trend Height
m
Period
s
Dir
28/11:30pm 25.5 NE 2 3 1012.4 - 0.0 - - - - - - -
28/11:00pm 25.7 NE 2 4 1012.4 - 0.0 - - - - - - -
28/10:30pm 26.1 NE 3 4 1012.3 - 0.0 - - - - - - -
28/10:00pm 26.0 NE 3 4 1012.4 - 0.0 - - - - - - -
28/09:30pm 26.7 NE 4 5 1012.3 - 0.0 - - - - - - -
28/09:00pm 27.0 NE 4 5 1012.1 - 0.0 - - - - - - -
28/08:30pm 27.8 NNE 5 7 1012.0 - 0.0 - - - - - - -
28/08:00pm 28.0 NNE 5 8 1011.7 - 0.0 - - - - - - -
28/07:30pm 28.2 NNE 5 7 1011.3 - 0.0 - - - - - - -
28/07:00pm 28.6 NNE 7 10 1011.0 - 0.0 - - - - - - -
28/06:30pm 28.4 N 4 6 1010.8 - 0.0 - - - - - - -
28/06:00pm 29.5 N 4 6 1010.6 - 0.0 - - - - - - -
28/05:30pm 30.3 NNW 5 7 1010.5 - 0.0 - - - - - - -

Other Formats:

Comma delimited format used in spreadsheet applications
http://www.bom.gov.au/fwo/IDD60701/IDD60701.94108.axf

JavaScript Object Notation format (JSON) in row-major order
http://www.bom.gov.au/fwo/IDD60701/IDD60701.94108.json